Time;durP1;ratioP1;P1;durP2;ratioP2;P2;SDS_P1;SDS_P2;PMS_P1;PMS_P2;Temp;Humidity;BMP_temperature;BMP_pressure;BME280_temperature;BME280_humidity;BME280_pressure;Samples;Min_cycle;Max_cycle;Signal;HPM_P1;HPM_P2
2019/10/20 00:01:06;;;;;;;1.91;1.73;;;;;;;20.26;59.03;99779.97;;;;-61
2019/10/20 00:04:06;;;;;;;1.88;1.67;;;;;;;20.25;58.99;99775.52;;;;-61
2019/10/20 00:07:06;;;;;;;1.86;1.76;;;;;;;20.23;59.05;99770.45;;;;-61
2019/10/20 00:10:07;;;;;;;2.09;1.67;;;;;;;20.24;59.01;99767.44;;;;-61
2019/10/20 00:13:07;;;;;;;1.73;1.63;;;;;;;20.23;59.03;99782.33;;;;-61
2019/10/20 00:16:06;;;;;;;1.89;1.75;;;;;;;20.22;59.08;99780.15;;;;-60
2019/10/20 00:19:07;;;;;;;1.79;1.69;;;;;;;20.22;59.04;99789.17;;;;-61
2019/10/20 00:22:06;;;;;;;1.71;1.61;;;;;;;20.22;59.04;99800.34;;;;-60
2019/10/20 00:25:06;;;;;;;1.71;1.59;;;;;;;20.22;59.08;99810.06;;;;-61
2019/10/20 00:28:07;;;;;;;2.36;1.77;;;;;;;20.22;59.04;99826.39;;;;-61
2019/10/20 00:31:07;;;;;;;1.89;1.79;;;;;;;20.22;59.12;99836.72;;;;-61
2019/10/20 00:34:06;;;;;;;2.38;1.71;;;;;;;20.21;59.04;99825.96;;;;-61
2019/10/20 00:37:07;;;;;;;1.90;1.70;;;;;;;20.20;59.05;99815.12;;;;-60
2019/10/20 00:40:06;;;;;;;1.87;1.69;;;;;;;20.20;59.07;99800.27;;;;-61
2019/10/20 00:43:06;;;;;;;1.70;1.60;;;;;;;20.20;59.04;99776.91;;;;-61
2019/10/20 00:46:06;;;;;;;1.70;1.60;;;;;;;20.19;59.07;99769.50;;;;-61
2019/10/20 00:49:06;;;;;;;1.81;1.71;;;;;;;20.20;59.05;99781.73;;;;-60
2019/10/20 00:52:06;;;;;;;1.80;1.70;;;;;;;20.20;59.06;99802.63;;;;-60
2019/10/20 00:55:06;;;;;;;1.78;1.60;;;;;;;20.20;59.05;99791.96;;;;-60
2019/10/20 00:58:06;;;;;;;1.86;1.73;;;;;;;20.19;59.08;99778.28;;;;-60
2019/10/20 01:01:07;;;;;;;1.83;1.70;;;;;;;20.19;59.05;99779.52;;;;-61
2019/10/20 01:04:07;;;;;;;1.81;1.71;;;;;;;20.18;59.10;99776.67;;;;-60
2019/10/20 01:07:06;;;;;;;1.91;1.76;;;;;;;20.18;59.05;99765.41;;;;-60
2019/10/20 01:10:06;;;;;;;1.62;1.52;;;;;;;20.17;59.06;99751.00;;;;-60
2019/10/20 01:13:06;;;;;;;2.89;1.71;;;;;;;20.17;59.06;99736.21;;;;-60
2019/10/20 01:16:06;;;;;;;1.70;1.60;;;;;;;20.17;59.04;99730.11;;;;-60
2019/10/20 01:19:06;;;;;;;1.73;1.63;;;;;;;20.16;59.06;99739.12;;;;-61
2019/10/20 01:22:06;;;;;;;2.05;1.60;;;;;;;20.16;59.05;99714.05;;;;-60
2019/10/20 01:25:06;;;;;;;1.80;1.70;;;;;;;20.16;59.08;99713.81;;;;-61
2019/10/20 01:28:07;;;;;;;1.59;1.49;;;;;;;20.16;59.05;99711.97;;;;-61
2019/10/20 01:31:07;;;;;;;1.87;1.66;;;;;;;20.15;59.08;99714.22;;;;-60
2019/10/20 01:34:06;;;;;;;1.93;1.70;;;;;;;20.15;59.08;99716.97;;;;-61
2019/10/20 01:37:06;;;;;;;1.72;1.53;;;;;;;20.15;59.07;99715.97;;;;-61
2019/10/20 01:40:07;;;;;;;1.60;1.50;;;;;;;20.15;59.02;99709.53;;;;-61
2019/10/20 01:43:06;;;;;;;1.71;1.61;;;;;;;20.15;59.07;99698.47;;;;-61
2019/10/20 01:46:06;;;;;;;1.81;1.64;;;;;;;20.14;59.06;99704.47;;;;-61
2019/10/20 01:49:06;;;;;;;1.70;1.60;;;;;;;20.14;59.08;99702.96;;;;-61
2019/10/20 01:52:06;;;;;;;1.59;1.49;;;;;;;20.13;59.08;99705.45;;;;-61
2019/10/20 01:55:06;;;;;;;1.75;1.50;;;;;;;20.14;59.05;99712.34;;;;-61
2019/10/20 01:58:06;;;;;;;1.64;1.54;;;;;;;20.14;59.04;99702.86;;;;-60
2019/10/20 02:01:06;;;;;;;2.33;1.63;;;;;;;20.13;59.05;99683.81;;;;-60
2019/10/20 02:04:06;;;;;;;1.74;1.60;;;;;;;20.13;59.06;99695.80;;;;-60
2019/10/20 02:07:06;;;;;;;1.73;1.50;;;;;;;20.12;59.05;99711.28;;;;-61
2019/10/20 02:10:06;;;;;;;2.17;1.63;;;;;;;20.13;59.07;99711.72;;;;-61
2019/10/20 02:13:06;;;;;;;1.60;1.50;;;;;;;20.12;59.12;99711.19;;;;-61
2019/10/20 02:16:06;;;;;;;1.82;1.56;;;;;;;20.12;59.03;99716.72;;;;-60
2019/10/20 02:19:07;;;;;;;1.60;1.50;;;;;;;20.11;59.10;99714.77;;;;-60
2019/10/20 02:22:07;;;;;;;1.75;1.63;;;;;;;20.11;59.09;99733.05;;;;-61
2019/10/20 02:25:06;;;;;;;1.97;1.70;;;;;;;20.11;59.10;99743.84;;;;-61
2019/10/20 02:28:06;;;;;;;1.71;1.60;;;;;;;20.10;59.08;99756.48;;;;-60
2019/10/20 02:31:06;;;;;;;1.62;1.52;;;;;;;20.10;59.12;99752.29;;;;-60
2019/10/20 02:34:06;;;;;;;1.78;1.45;;;;;;;20.10;59.08;99735.86;;;;-61
2019/10/20 02:37:06;;;;;;;1.60;1.50;;;;;;;20.10;59.06;99698.72;;;;-61
2019/10/20 02:40:06;;;;;;;1.60;1.50;;;;;;;20.10;59.08;99704.75;;;;-61
2019/10/20 02:43:06;;;;;;;1.81;1.67;;;;;;;20.10;59.07;99704.09;;;;-60
2019/10/20 02:46:06;;;;;;;1.60;1.50;;;;;;;20.09;59.08;99714.45;;;;-61
2019/10/20 02:49:07;;;;;;;1.70;1.60;;;;;;;20.09;59.02;99695.77;;;;-60
2019/10/20 02:52:06;;;;;;;1.57;1.47;;;;;;;20.09;59.12;99704.16;;;;-61
2019/10/20 02:55:07;;;;;;;1.60;1.50;;;;;;;20.09;59.10;99699.46;;;;-60
2019/10/20 02:58:06;;;;;;;1.50;1.40;;;;;;;20.08;59.10;99707.64;;;;-61
2019/10/20 03:03:07;;;;;;;1.59;1.49;;;;;;;20.08;59.08;99697.15;;;;-61
2019/10/20 03:06:06;;;;;;;1.69;1.55;;;;;;;20.08;59.11;99701.77;;;;-60
2019/10/20 03:09:06;;;;;;;2.33;1.61;;;;;;;20.08;59.09;99709.55;;;;-60
2019/10/20 03:12:06;;;;;;;2.01;1.50;;;;;;;20.09;59.11;99725.67;;;;-61
2019/10/20 03:15:06;;;;;;;1.72;1.59;;;;;;;20.08;59.09;99762.19;;;;-61
2019/10/20 03:18:06;;;;;;;1.50;1.40;;;;;;;20.08;59.11;99798.06;;;;-60
2019/10/20 03:21:06;;;;;;;1.60;1.50;;;;;;;20.08;59.11;99798.06;;;;-61
2019/10/20 03:24:06;;;;;;;1.52;1.42;;;;;;;20.07;59.13;99815.56;;;;-61
2019/10/20 03:27:06;;;;;;;1.71;1.44;;;;;;;20.07;59.12;99798.62;;;;-61
2019/10/20 03:30:06;;;;;;;1.63;1.50;;;;;;;20.06;59.11;99796.92;;;;-60
2019/10/20 03:33:07;;;;;;;1.59;1.49;;;;;;;20.06;59.11;99792.40;;;;-61
2019/10/20 03:36:06;;;;;;;1.51;1.41;;;;;;;20.06;59.08;99806.98;;;;-61
2019/10/20 03:39:06;;;;;;;1.52;1.42;;;;;;;20.06;59.09;99820.13;;;;-61
2019/10/20 03:42:07;;;;;;;1.63;1.53;;;;;;;20.05;59.09;99797.06;;;;-60
2019/10/20 03:45:06;;;;;;;1.60;1.50;;;;;;;20.05;59.12;99807.95;;;;-61
2019/10/20 03:50:07;;;;;;;1.60;1.50;;;;;;;20.04;59.11;99808.52;;;;-61
2019/10/20 03:53:06;;;;;;;1.56;1.46;;;;;;;20.05;59.08;99792.97;;;;-60
2019/10/20 03:56:06;;;;;;;1.58;1.47;;;;;;;20.05;59.08;99785.39;;;;-61
2019/10/20 03:59:07;;;;;;;1.50;1.40;;;;;;;20.05;59.08;99795.22;;;;-61
2019/10/20 04:02:07;;;;;;;1.60;1.50;;;;;;;20.04;59.07;99790.99;;;;-60
2019/10/20 04:05:06;;;;;;;1.61;1.50;;;;;;;20.05;59.05;99769.91;;;;-61
2019/10/20 04:08:06;;;;;;;1.55;1.45;;;;;;;20.04;59.07;99767.13;;;;-60
2019/10/20 04:11:06;;;;;;;1.68;1.58;;;;;;;20.04;59.08;99757.41;;;;-61
2019/10/20 04:14:07;;;;;;;1.58;1.48;;;;;;;20.04;59.10;99754.35;;;;-60
2019/10/20 04:17:07;;;;;;;1.52;1.42;;;;;;;20.04;59.07;99746.64;;;;-61
2019/10/20 04:20:07;;;;;;;1.60;1.50;;;;;;;20.03;59.08;99746.38;;;;-61
2019/10/20 04:23:07;;;;;;;1.63;1.53;;;;;;;20.03;59.07;99733.23;;;;-60
2019/10/20 04:26:07;;;;;;;1.59;1.49;;;;;;;20.03;59.05;99744.94;;;;-61
2019/10/20 04:29:07;;;;;;;1.51;1.41;;;;;;;20.03;59.06;99749.73;;;;-61
2019/10/20 04:32:07;;;;;;;1.60;1.50;;;;;;;20.03;59.09;99745.38;;;;-61
2019/10/20 04:35:07;;;;;;;1.77;1.53;;;;;;;20.03;59.19;99750.23;;;;-61
2019/10/20 04:38:07;;;;;;;1.70;1.60;;;;;;;20.01;59.11;99748.50;;;;-61
2019/10/20 04:41:07;;;;;;;1.60;1.50;;;;;;;20.03;59.12;99750.73;;;;-60
2019/10/20 04:44:06;;;;;;;1.63;1.53;;;;;;;20.04;59.13;99771.95;;;;-60
2019/10/20 04:47:07;;;;;;;1.70;1.60;;;;;;;20.04;59.06;99768.53;;;;-60
2019/10/20 04:50:06;;;;;;;1.60;1.50;;;;;;;20.05;58.99;99794.81;;;;-61
2019/10/20 04:53:06;;;;;;;1.69;1.59;;;;;;;20.07;58.93;99799.47;;;;-60
2019/10/20 04:56:07;;;;;;;1.97;1.54;;;;;;;20.09;58.90;99809.99;;;;-61
2019/10/20 04:59:06;;;;;;;1.51;1.41;;;;;;;20.11;58.81;99801.10;;;;-61
2019/10/20 05:02:07;;;;;;;1.50;1.40;;;;;;;20.14;58.90;99797.34;;;;-60
2019/10/20 05:05:07;;;;;;;1.61;1.51;;;;;;;20.15;58.85;99769.55;;;;-60
2019/10/20 05:08:06;;;;;;;1.53;1.43;;;;;;;20.19;58.93;99753.54;;;;-60
2019/10/20 05:11:07;;;;;;;1.60;1.49;;;;;;;20.22;58.96;99750.05;;;;-61
2019/10/20 05:14:06;;;;;;;1.50;1.40;;;;;;;20.24;58.98;99758.58;;;;-60
2019/10/20 05:17:07;;;;;;;1.64;1.54;;;;;;;20.28;59.09;99750.63;;;;-60
2019/10/20 05:20:07;;;;;;;1.41;1.31;;;;;;;20.30;59.10;99748.53;;;;-60
2019/10/20 05:23:07;;;;;;;1.51;1.41;;;;;;;20.33;59.12;99744.06;;;;-60
2019/10/20 05:26:06;;;;;;;1.56;1.46;;;;;;;20.35;59.14;99752.27;;;;-60
2019/10/20 05:29:06;;;;;;;1.61;1.51;;;;;;;20.38;59.17;99740.19;;;;-61
2019/10/20 05:32:06;;;;;;;1.57;1.47;;;;;;;20.41;59.19;99749.50;;;;-61
2019/10/20 05:35:07;;;;;;;1.40;1.30;;;;;;;20.43;59.16;99774.88;;;;-60
2019/10/20 05:38:07;;;;;;;1.43;1.33;;;;;;;20.44;59.16;99772.23;;;;-60
2019/10/20 05:41:07;;;;;;;1.47;1.37;;;;;;;20.47;59.17;99771.48;;;;-61
2019/10/20 05:44:06;;;;;;;1.46;1.36;;;;;;;20.48;59.16;99787.07;;;;-61
2019/10/20 05:47:07;;;;;;;1.50;1.40;;;;;;;20.49;59.13;99795.59;;;;-60
2019/10/20 05:50:07;;;;;;;2.01;1.41;;;;;;;20.50;59.05;99785.48;;;;-60
2019/10/20 05:53:07;;;;;;;1.50;1.40;;;;;;;20.51;59.03;99780.89;;;;-60
2019/10/20 05:56:06;;;;;;;1.59;1.49;;;;;;;20.52;59.02;99758.04;;;;-60
2019/10/20 05:59:07;;;;;;;1.47;1.36;;;;;;;20.53;59.03;99769.04;;;;-60
2019/10/20 06:02:06;;;;;;;1.56;1.46;;;;;;;20.53;58.96;99766.12;;;;-60
2019/10/20 06:05:07;;;;;;;1.47;1.37;;;;;;;20.54;58.95;99755.48;;;;-61
2019/10/20 06:08:07;;;;;;;1.51;1.41;;;;;;;20.54;58.89;99756.02;;;;-60
2019/10/20 06:11:07;;;;;;;1.43;1.33;;;;;;;20.55;58.84;99763.66;;;;-60
2019/10/20 06:14:07;;;;;;;1.50;1.40;;;;;;;20.55;58.84;99776.47;;;;-61
2019/10/20 06:17:06;;;;;;;1.91;1.24;;;;;;;20.56;58.74;99781.70;;;;-49
2019/10/20 06:20:07;;;;;;;1.40;1.30;;;;;;;20.55;58.73;99788.82;;;;-49
2019/10/20 06:23:07;;;;;;;1.50;1.40;;;;;;;20.56;58.79;99793.52;;;;-49
2019/10/20 06:26:07;;;;;;;1.50;1.40;;;;;;;20.56;58.74;99787.07;;;;-49
2019/10/20 06:29:07;;;;;;;1.97;1.48;;;;;;;20.56;58.71;99775.50;;;;-49
2019/10/20 06:32:07;;;;;;;1.50;1.40;;;;;;;20.55;58.68;99778.83;;;;-49
2019/10/20 06:35:07;;;;;;;1.50;1.40;;;;;;;20.57;58.64;99782.64;;;;-49
2019/10/20 06:38:06;;;;;;;1.78;1.30;;;;;;;20.55;58.66;99781.67;;;;-49
2019/10/20 06:41:06;;;;;;;1.50;1.40;;;;;;;20.56;58.59;99784.39;;;;-49
2019/10/20 06:44:07;;;;;;;1.42;1.32;;;;;;;20.55;58.63;99773.63;;;;-49
2019/10/20 06:48:07;;;;;;;1.45;1.35;;;;;;;20.55;58.59;99778.42;;;;-49
2019/10/20 06:51:07;;;;;;;1.53;1.42;;;;;;;20.56;58.55;99785.06;;;;-49
2019/10/20 06:54:06;;;;;;;1.47;1.37;;;;;;;20.55;58.54;99782.52;;;;-49
2019/10/20 06:57:06;;;;;;;1.50;1.40;;;;;;;20.55;58.45;99771.78;;;;-49
2019/10/20 07:00:07;;;;;;;1.45;1.35;;;;;;;20.55;58.56;99770.03;;;;-49
2019/10/20 07:03:06;;;;;;;1.43;1.33;;;;;;;20.54;58.49;99777.48;;;;-49
2019/10/20 07:06:07;;;;;;;1.86;1.40;;;;;;;20.54;58.44;99775.14;;;;-49
2019/10/20 07:09:07;;;;;;;1.59;1.49;;;;;;;20.55;58.30;99773.45;;;;-49
2019/10/20 07:12:07;;;;;;;1.50;1.40;;;;;;;20.54;58.33;99778.49;;;;-51
2019/10/20 07:15:07;;;;;;;2.22;1.40;;;;;;;20.56;58.61;99785.73;;;;-52
2019/10/20 07:18:06;;;;;;;3.88;1.71;;;;;;;20.58;59.03;99795.28;;;;-53
2019/10/20 07:21:07;;;;;;;3.41;1.52;;;;;;;20.58;58.76;99799.31;;;;-53
2019/10/20 07:24:07;;;;;;;2.63;1.45;;;;;;;20.59;58.76;99810.48;;;;-52
2019/10/20 07:27:07;;;;;;;5.90;3.24;;;;;;;20.52;58.49;99808.96;;;;-61
2019/10/20 07:30:06;;;;;;;6.35;3.94;;;;;;;20.41;58.25;99807.59;;;;-57
2019/10/20 07:33:07;;;;;;;5.39;4.07;;;;;;;20.41;58.43;99795.79;;;;-62
2019/10/20 07:36:07;;;;;;;4.66;4.23;;;;;;;20.42;58.40;99789.27;;;;-61
2019/10/20 07:39:07;;;;;;;4.78;4.17;;;;;;;20.41;58.56;99784.28;;;;-62
2019/10/20 07:42:06;;;;;;;4.66;4.19;;;;;;;20.40;58.55;99777.91;;;;-62
2019/10/20 07:45:07;;;;;;;5.76;3.97;;;;;;;20.39;58.63;99776.61;;;;-62
2019/10/20 07:48:07;;;;;;;5.43;4.30;;;;;;;20.39;58.56;99776.95;;;;-61
2019/10/20 07:51:06;;;;;;;4.97;4.47;;;;;;;20.38;58.54;99776.75;;;;-62
2019/10/20 07:54:07;;;;;;;5.55;4.72;;;;;;;20.36;58.60;99765.55;;;;-62
2019/10/20 07:57:06;;;;;;;5.77;4.79;;;;;;;20.34;58.56;99761.80;;;;-62
2019/10/20 08:00:07;;;;;;;7.03;4.80;;;;;;;20.36;58.80;99769.81;;;;-56
2019/10/20 08:03:07;;;;;;;5.21;4.09;;;;;;;20.42;58.78;99773.52;;;;-57
2019/10/20 08:06:07;;;;;;;4.18;3.73;;;;;;;20.46;58.67;99770.70;;;;-58
2019/10/20 08:09:07;;;;;;;4.41;3.53;;;;;;;20.50;58.70;99764.09;;;;-60
2019/10/20 08:12:06;;;;;;;4.23;3.30;;;;;;;20.53;58.76;99757.20;;;;-60
2019/10/20 08:15:07;;;;;;;4.32;3.35;;;;;;;20.55;58.82;99750.31;;;;-61
2019/10/20 08:18:07;;;;;;;3.29;2.90;;;;;;;20.57;58.81;99749.69;;;;-61
2019/10/20 08:21:07;;;;;;;4.62;2.95;;;;;;;20.60;58.88;99749.78;;;;-49
2019/10/20 08:24:06;;;;;;;3.20;2.83;;;;;;;20.62;58.97;99743.13;;;;-50
2019/10/20 08:27:07;;;;;;;3.41;2.77;;;;;;;20.64;58.97;99753.25;;;;-50
2019/10/20 08:30:07;;;;;;;3.50;2.73;;;;;;;20.65;58.96;99757.47;;;;-49
2019/10/20 08:33:07;;;;;;;2.60;2.40;;;;;;;20.66;59.02;99751.02;;;;-52
2019/10/20 08:36:07;;;;;;;3.01;2.54;;;;;;;20.67;58.95;99745.86;;;;-46
2019/10/20 08:39:07;;;;;;;3.91;2.65;;;;;;;20.68;58.90;99742.86;;;;-52
2019/10/20 08:42:06;;;;;;;2.87;2.53;;;;;;;20.67;58.92;99743.09;;;;-52
2019/10/20 08:45:07;;;;;;;2.73;2.43;;;;;;;20.69;58.99;99742.83;;;;-48
2019/10/20 08:48:07;;;;;;;3.29;2.43;;;;;;;20.69;59.01;99738.29;;;;-49
2019/10/20 08:51:07;;;;;;;2.77;2.30;;;;;;;20.70;58.96;99741.00;;;;-49
2019/10/20 08:54:07;;;;;;;3.05;2.35;;;;;;;20.72;58.96;99745.05;;;;-50
2019/10/20 08:57:06;;;;;;;4.04;2.39;;;;;;;20.73;58.87;99745.25;;;;-50
2019/10/20 09:00:06;;;;;;;3.03;2.40;;;;;;;20.71;59.06;99736.33;;;;-50
2019/10/20 09:03:06;;;;;;;4.95;2.25;;;;;;;20.71;58.94;99734.32;;;;-50
2019/10/20 09:06:07;;;;;;;4.05;2.35;;;;;;;20.70;58.82;99734.86;;;;-50
2019/10/20 09:09:07;;;;;;;2.75;2.30;;;;;;;20.70;58.87;99736.38;;;;-51
2019/10/20 09:12:07;;;;;;;2.58;2.35;;;;;;;20.69;58.77;99737.85;;;;-50
2019/10/20 09:16:07;;;;;;;2.49;2.13;;;;;;;20.68;58.75;99739.27;;;;-50
2019/10/20 09:19:06;;;;;;;2.42;2.22;;;;;;;20.68;58.69;99729.20;;;;-50
2019/10/20 09:22:07;;;;;;;2.21;1.96;;;;;;;20.68;58.69;99725.52;;;;-50
2019/10/20 09:25:07;;;;;;;7.96;2.67;;;;;;;20.67;58.78;99716.33;;;;-51
2019/10/20 09:28:07;;;;;;;2.52;2.20;;;;;;;20.68;58.69;99700.84;;;;-54
2019/10/20 09:31:07;;;;;;;3.98;2.21;;;;;;;20.68;58.69;99687.42;;;;-50
2019/10/20 09:34:07;;;;;;;3.89;2.08;;;;;;;20.71;58.65;99689.02;;;;-51
2019/10/20 09:37:07;;;;;;;3.91;2.39;;;;;;;20.71;58.78;99692.03;;;;-51
2019/10/20 09:40:07;;;;;;;2.33;2.13;;;;;;;20.72;58.69;99689.62;;;;-51
2019/10/20 09:43:06;;;;;;;3.03;2.17;;;;;;;20.72;58.79;99681.23;;;;-48
2019/10/20 09:46:07;;;;;;;2.89;2.27;;;;;;;20.73;58.79;99684.61;;;;-52
2019/10/20 09:49:07;;;;;;;2.80;2.20;;;;;;;20.73;58.80;99690.21;;;;-48
2019/10/20 09:52:07;;;;;;;2.33;2.01;;;;;;;20.74;58.84;99691.52;;;;-45
2019/10/20 09:55:07;;;;;;;3.55;2.21;;;;;;;20.73;58.88;99686.89;;;;-45
2019/10/20 09:58:07;;;;;;;2.61;2.09;;;;;;;20.74;58.81;99682.86;;;;-50
2019/10/20 10:01:07;;;;;;;2.35;2.11;;;;;;;20.74;58.82;99680.27;;;;-51
2019/10/20 10:04:07;;;;;;;2.33;2.11;;;;;;;20.74;58.91;99672.22;;;;-51
2019/10/20 10:07:07;;;;;;;4.56;2.20;;;;;;;20.74;58.76;99672.89;;;;-48
2019/10/20 10:10:07;;;;;;;3.49;2.15;;;;;;;20.72;58.92;99672.43;;;;-51
2019/10/20 10:13:07;;;;;;;2.29;2.09;;;;;;;20.73;58.81;99669.52;;;;-48
2019/10/20 10:16:07;;;;;;;2.13;2.00;;;;;;;20.72;58.80;99671.77;;;;-48
2019/10/20 10:19:07;;;;;;;2.99;2.12;;;;;;;20.71;58.81;99676.33;;;;-48
2019/10/20 10:22:07;;;;;;;3.40;2.20;;;;;;;20.71;58.69;99682.98;;;;-48
2019/10/20 10:25:07;;;;;;;2.19;1.97;;;;;;;20.71;58.64;99678.11;;;;-48
2019/10/20 10:28:07;;;;;;;3.04;2.08;;;;;;;20.71;58.71;99688.41;;;;-48
2019/10/20 10:31:07;;;;;;;2.03;1.93;;;;;;;20.68;58.68;99689.09;;;;-48
2019/10/20 10:34:07;;;;;;;2.61;2.00;;;;;;;20.69;58.65;99698.09;;;;-48
2019/10/20 10:37:07;;;;;;;2.19;1.91;;;;;;;20.68;58.58;99687.59;;;;-48
2019/10/20 10:40:07;;;;;;;2.25;2.05;;;;;;;20.68;58.57;99682.30;;;;-47
2019/10/20 10:43:07;;;;;;;2.15;1.95;;;;;;;20.68;58.56;99681.78;;;;-47
2019/10/20 10:46:07;;;;;;;2.78;2.00;;;;;;;20.67;58.53;99682.43;;;;-48
2019/10/20 10:49:07;;;;;;;2.23;2.03;;;;;;;20.67;58.54;99681.59;;;;-48
2019/10/20 10:52:07;;;;;;;2.21;2.01;;;;;;;20.67;58.51;99691.09;;;;-48
2019/10/20 10:55:06;;;;;;;2.23;2.03;;;;;;;20.66;58.48;99685.69;;;;-48
2019/10/20 10:58:07;;;;;;;1.97;1.87;;;;;;;20.65;58.52;99682.72;;;;-48
2019/10/20 11:01:07;;;;;;;2.76;1.99;;;;;;;20.65;58.42;99683.22;;;;-48
2019/10/20 11:04:07;;;;;;;2.22;2.02;;;;;;;20.64;58.45;99667.52;;;;-47
2019/10/20 11:07:07;;;;;;;2.75;1.97;;;;;;;20.64;58.44;99664.73;;;;-48
2019/10/20 11:10:07;;;;;;;2.25;1.90;;;;;;;20.63;58.43;99667.33;;;;-49
2019/10/20 11:13:06;;;;;;;2.01;1.81;;;;;;;20.63;58.43;99676.62;;;;-47
2019/10/20 11:16:07;;;;;;;2.55;2.04;;;;;;;20.64;58.39;99673.22;;;;-48
2019/10/20 11:19:07;;;;;;;2.05;1.89;;;;;;;20.62;58.42;99667.80;;;;-48
2019/10/20 11:22:07;;;;;;;2.04;1.89;;;;;;;20.62;58.45;99675.69;;;;-47
2019/10/20 11:25:07;;;;;;;15.55;2.27;;;;;;;20.62;58.45;99670.66;;;;-49
2019/10/20 11:28:07;;;;;;;3.67;1.99;;;;;;;20.63;58.56;99660.85;;;;-45
2019/10/20 11:31:07;;;;;;;2.37;2.17;;;;;;;20.65;58.60;99666.70;;;;-50
2019/10/20 11:34:07;;;;;;;4.91;2.20;;;;;;;20.63;58.65;99662.12;;;;-47
2019/10/20 11:37:06;;;;;;;4.46;2.25;;;;;;;20.66;58.71;99667.07;;;;-51
2019/10/20 11:40:07;;;;;;;5.79;2.43;;;;;;;20.65;58.63;99671.73;;;;-44
2019/10/20 11:43:07;;;;;;;3.58;2.39;;;;;;;20.67;58.67;99665.92;;;;-51
2019/10/20 11:46:07;;;;;;;6.79;2.53;;;;;;;20.68;58.72;99670.65;;;;-52
2019/10/20 11:49:07;;;;;;;3.31;2.61;;;;;;;20.67;58.74;99667.43;;;;-45
2019/10/20 11:52:07;;;;;;;3.10;2.80;;;;;;;20.68;58.83;99671.48;;;;-46
2019/10/20 11:55:07;;;;;;;3.43;2.70;;;;;;;20.69;58.83;99671.08;;;;-46
2019/10/20 11:58:07;;;;;;;4.00;2.93;;;;;;;20.69;58.83;99674.20;;;;-46
2019/10/20 12:01:07;;;;;;;4.91;3.07;;;;;;;20.70;58.90;99674.39;;;;-50
2019/10/20 12:04:07;;;;;;;5.10;3.23;;;;;;;20.69;59.02;99670.17;;;;-49
2019/10/20 12:07:07;;;;;;;3.55;3.16;;;;;;;20.71;58.87;99667.27;;;;-48
2019/10/20 12:10:07;;;;;;;4.54;3.37;;;;;;;20.72;58.97;99665.69;;;;-59
2019/10/20 12:13:06;;;;;;;3.73;3.14;;;;;;;20.72;58.84;99660.86;;;;-59
2019/10/20 12:16:07;;;;;;;3.84;3.52;;;;;;;20.72;58.87;99654.72;;;;-59
2019/10/20 12:19:07;;;;;;;4.98;3.62;;;;;;;20.74;58.85;99644.94;;;;-49
2019/10/20 12:22:06;;;;;;;4.09;3.45;;;;;;;20.73;58.77;99642.76;;;;-47
2019/10/20 12:25:07;;;;;;;3.79;3.40;;;;;;;20.74;58.81;99645.20;;;;-46
2019/10/20 12:28:07;;;;;;;5.39;3.39;;;;;;;20.75;58.86;99644.66;;;;-59
2019/10/20 12:31:07;;;;;;;4.79;3.43;;;;;;;20.78;58.89;99645.91;;;;-46
2019/10/20 12:34:07;;;;;;;6.80;3.93;;;;;;;20.78;59.06;99643.97;;;;-60
2019/10/20 12:37:07;;;;;;;5.63;3.71;;;;;;;20.79;58.97;99628.22;;;;-57
2019/10/20 12:40:06;;;;;;;7.71;3.96;;;;;;;20.79;58.88;99629.30;;;;-49
2019/10/20 12:43:07;;;;;;;6.21;3.63;;;;;;;20.80;58.92;99631.73;;;;-45
2019/10/20 12:46:07;;;;;;;4.90;3.67;;;;;;;20.79;58.91;99644.56;;;;-45
2019/10/20 12:49:07;;;;;;;4.27;3.71;;;;;;;20.79;58.85;99642.48;;;;-50
2019/10/20 12:52:07;;;;;;;5.58;3.81;;;;;;;20.79;58.85;99639.63;;;;-50
2019/10/20 12:55:07;;;;;;;5.35;3.70;;;;;;;20.76;58.99;99628.24;;;;-45
2019/10/20 12:58:07;;;;;;;5.69;3.61;;;;;;;20.78;58.95;99619.80;;;;-57
2019/10/20 13:01:07;;;;;;;5.99;3.81;;;;;;;20.78;59.02;99626.28;;;;-51
2019/10/20 13:04:06;;;;;;;4.78;3.38;;;;;;;20.80;58.99;99631.41;;;;-52
2019/10/20 13:07:07;;;;;;;15.79;3.78;;;;;;;20.79;59.06;99634.09;;;;-46
2019/10/20 13:10:07;;;;;;;6.11;3.64;;;;;;;20.81;59.04;99635.32;;;;-59
2019/10/20 13:13:07;;;;;;;6.19;3.67;;;;;;;20.82;59.03;99644.51;;;;-56
2019/10/20 13:16:07;;;;;;;7.65;3.57;;;;;;;20.82;58.91;99640.38;;;;-54
2019/10/20 13:19:07;;;;;;;7.66;3.71;;;;;;;20.81;58.89;99643.37;;;;-53
2019/10/20 13:22:07;;;;;;;8.20;3.75;;;;;;;20.80;58.86;99648.08;;;;-51
2019/10/20 13:25:06;;;;;;;4.95;3.49;;;;;;;20.79;58.79;99659.00;;;;-48
2019/10/20 13:28:07;;;;;;;4.18;3.67;;;;;;;20.79;58.74;99661.45;;;;-60
2019/10/20 13:31:07;;;;;;;4.67;3.73;;;;;;;20.78;58.80;99657.89;;;;-53
2019/10/20 13:34:07;;;;;;;5.15;3.36;;;;;;;20.77;58.71;99662.33;;;;-48
2019/10/20 13:37:07;;;;;;;5.41;3.29;;;;;;;20.76;58.69;99669.02;;;;-48
2019/10/20 13:40:07;;;;;;;4.26;3.51;;;;;;;20.76;58.77;99669.76;;;;-51
2019/10/20 13:43:07;;;;;;;4.17;3.32;;;;;;;20.75;58.72;99671.00;;;;-59
2019/10/20 13:46:06;;;;;;;4.77;3.71;;;;;;;20.75;58.66;99668.72;;;;-59
2019/10/20 13:49:06;;;;;;;3.89;3.38;;;;;;;20.75;58.66;99668.45;;;;-53
2019/10/20 13:52:06;;;;;;;4.97;3.51;;;;;;;20.74;58.59;99673.23;;;;-51
2019/10/20 13:55:06;;;;;;;5.67;3.62;;;;;;;20.73;58.60;99672.29;;;;-59
2019/10/20 13:58:07;;;;;;;3.62;3.32;;;;;;;20.73;58.62;99667.33;;;;-59
2019/10/20 14:01:07;;;;;;;6.83;3.77;;;;;;;20.73;58.62;99672.77;;;;-59
2019/10/20 14:04:07;;;;;;;3.91;3.43;;;;;;;20.72;58.61;99677.37;;;;-51
2019/10/20 14:07:06;;;;;;;5.03;3.40;;;;;;;20.72;58.63;99679.61;;;;-51
2019/10/20 14:10:07;;;;;;;3.64;3.21;;;;;;;20.72;58.54;99678.20;;;;-51
2019/10/20 14:13:06;;;;;;;4.09;3.34;;;;;;;20.70;58.59;99667.25;;;;-53
2019/10/20 14:16:07;;;;;;;3.91;3.39;;;;;;;20.70;58.58;99645.77;;;;-60
2019/10/20 14:19:07;;;;;;;3.73;3.34;;;;;;;20.70;58.57;99633.86;;;;-59
2019/10/20 14:22:07;;;;;;;5.22;3.30;;;;;;;20.70;58.54;99628.66;;;;-53
2019/10/20 14:25:07;;;;;;;4.01;3.46;;;;;;;20.68;58.56;99628.53;;;;-59
2019/10/20 14:28:06;;;;;;;4.57;3.35;;;;;;;20.69;58.50;99624.61;;;;-53
2019/10/20 14:31:06;;;;;;;4.09;3.46;;;;;;;20.68;58.57;99617.20;;;;-59
2019/10/20 14:34:07;;;;;;;3.97;3.56;;;;;;;20.66;58.61;99617.64;;;;-56
2019/10/20 14:37:07;;;;;;;4.10;3.21;;;;;;;20.69;58.73;99621.08;;;;-46
2019/10/20 14:40:07;;;;;;;5.59;3.46;;;;;;;20.70;58.87;99631.44;;;;-50
2019/10/20 14:43:06;;;;;;;4.95;3.41;;;;;;;20.71;59.17;99625.92;;;;-50
2019/10/20 14:46:07;;;;;;;5.53;3.41;;;;;;;20.74;59.23;99634.30;;;;-62
2019/10/20 14:49:07;;;;;;;5.93;3.54;;;;;;;20.74;59.23;99642.59;;;;-57
2019/10/20 14:52:06;;;;;;;5.51;3.40;;;;;;;20.76;59.34;99644.48;;;;-57
2019/10/20 14:55:06;;;;;;;8.29;3.23;;;;;;;20.78;59.49;99642.02;;;;-54
2019/10/20 14:58:07;;;;;;;7.46;3.35;;;;;;;20.79;59.49;99642.98;;;;-53
2019/10/20 15:01:07;;;;;;;6.57;3.34;;;;;;;20.80;59.51;99645.50;;;;-53
2019/10/20 15:04:07;;;;;;;7.81;3.50;;;;;;;20.81;59.53;99651.77;;;;-51
2019/10/20 15:07:07;;;;;;;5.98;3.38;;;;;;;20.82;59.70;99656.09;;;;-51
2019/10/20 15:10:06;;;;;;;4.71;3.30;;;;;;;20.83;59.76;99651.95;;;;-58
2019/10/20 15:13:06;;;;;;;6.47;3.18;;;;;;;20.84;59.83;99656.48;;;;-56
2019/10/20 15:16:06;;;;;;;4.20;3.33;;;;;;;20.84;59.73;99657.01;;;;-52
2019/10/20 15:19:06;;;;;;;4.97;3.31;;;;;;;20.85;59.76;99657.37;;;;-50
2019/10/20 15:22:06;;;;;;;5.91;3.24;;;;;;;20.86;59.86;99665.02;;;;-56
2019/10/20 15:25:07;;;;;;;4.51;3.11;;;;;;;20.87;59.75;99668.80;;;;-55
2019/10/20 15:28:06;;;;;;;3.72;3.11;;;;;;;20.87;59.85;99666.89;;;;-54
2019/10/20 15:31:06;;;;;;;5.03;3.17;;;;;;;20.87;59.75;99666.28;;;;-47
2019/10/20 15:34:06;;;;;;;3.89;3.13;;;;;;;20.88;59.82;99665.06;;;;-54
2019/10/20 15:37:06;;;;;;;6.72;3.51;;;;;;;20.85;60.40;99671.94;;;;-50
2019/10/20 15:40:07;;;;;;;6.07;4.03;;;;;;;20.77;61.27;99677.40;;;;-49
2019/10/20 15:43:07;;;;;;;8.75;3.77;;;;;;;20.79;61.34;99684.94;;;;-52
2019/10/20 15:46:07;;;;;;;5.01;3.90;;;;;;;20.81;61.33;99690.03;;;;-51
2019/10/20 15:49:07;;;;;;;9.23;3.79;;;;;;;20.83;60.74;99686.59;;;;-50
2019/10/20 15:52:06;;;;;;;4.77;3.63;;;;;;;20.88;60.59;99693.06;;;;-51
2019/10/20 15:55:06;;;;;;;6.21;3.67;;;;;;;20.87;60.71;99690.36;;;;-51
2019/10/20 15:58:06;;;;;;;5.51;3.39;;;;;;;20.89;60.51;99700.17;;;;-51
2019/10/20 16:01:06;;;;;;;6.05;3.49;;;;;;;20.91;60.42;99703.15;;;;-51
2019/10/20 16:04:07;;;;;;;6.55;3.35;;;;;;;20.92;60.42;99709.95;;;;-50
2019/10/20 16:07:07;;;;;;;9.01;3.25;;;;;;;20.93;60.37;99723.17;;;;-51
2019/10/20 16:10:06;;;;;;;6.71;3.41;;;;;;;20.93;60.49;99725.19;;;;-50
2019/10/20 16:13:06;;;;;;;8.30;3.35;;;;;;;20.94;60.31;99722.70;;;;-51
2019/10/20 16:16:07;;;;;;;25.53;3.78;;;;;;;20.93;60.29;99723.84;;;;-52
2019/10/20 16:19:06;;;;;;;6.33;3.26;;;;;;;20.94;60.24;99736.97;;;;-50
2019/10/20 16:22:06;;;;;;;7.85;3.27;;;;;;;20.95;60.16;99749.81;;;;-52
2019/10/20 16:25:06;;;;;;;7.65;3.43;;;;;;;20.94;60.32;99751.06;;;;-52
2019/10/20 16:28:07;;;;;;;8.27;3.22;;;;;;;20.94;60.29;99758.55;;;;-52
2019/10/20 16:31:07;;;;;;;6.39;3.20;;;;;;;20.95;60.22;99760.16;;;;-50
2019/10/20 16:34:07;;;;;;;8.13;2.89;;;;;;;20.94;60.08;99766.61;;;;-49
2019/10/20 16:37:06;;;;;;;8.81;3.11;;;;;;;20.95;60.12;99758.64;;;;-49
2019/10/20 16:40:07;;;;;;;6.96;2.95;;;;;;;20.94;60.14;99748.64;;;;-48
2019/10/20 16:43:06;;;;;;;6.14;2.99;;;;;;;20.94;60.01;99751.83;;;;-49
2019/10/20 16:46:06;;;;;;;4.31;2.78;;;;;;;20.94;59.92;99756.36;;;;-51
2019/10/20 16:49:07;;;;;;;4.33;2.84;;;;;;;20.95;59.78;99764.69;;;;-50
2019/10/20 16:52:07;;;;;;;7.11;3.43;;;;;;;20.94;59.88;99769.80;;;;-52
2019/10/20 16:55:06;;;;;;;5.59;2.78;;;;;;;20.93;59.79;99772.95;;;;-51
2019/10/20 16:58:06;;;;;;;5.13;3.01;;;;;;;20.93;59.77;99776.22;;;;-52
2019/10/20 17:01:06;;;;;;;9.89;3.11;;;;;;;20.90;59.85;99780.77;;;;-49